Time;durP1;ratioP1;P1;durP2;ratioP2;P2;SDS_P1;SDS_P2;PMS_P1;PMS_P2;Temp;Humidity;BMP_temperature;BMP_pressure;BME280_temperature;BME280_humidity;BME280_pressure;Samples;Min_cycle;Max_cycle;Signal;HPM_P1;HPM_P2
2023/04/13 00:01:31;;;;;;;1.00;1.00;;;18.70;63.20;;;;;;5054147;28;20729;-69
2023/04/13 00:04:22;;;;;;;1.85;1.10;;;18.70;63.30;;;;;;5054503;28;20198;-69
2023/04/13 00:07:15;;;;;;;2.85;1.40;;;18.80;63.40;;;;;;5054062;28;20209;-69
2023/04/13 00:10:05;;;;;;;1.13;1.02;;;18.70;63.30;;;;;;5054568;28;20221;-69
2023/04/13 00:12:57;;;;;;;1.00;1.00;;;18.70;63.40;;;;;;5053272;28;20690;-68
2023/04/13 00:15:45;;;;;;;1.48;1.13;;;18.70;63.40;;;;;;5053811;28;20198;-69
2023/04/13 00:18:33;;;;;;;1.77;1.27;;;18.70;63.50;;;;;;5054206;28;20209;-68
2023/04/13 00:21:22;;;;;;;2.17;1.20;;;18.70;63.60;;;;;;5053847;28;20666;-68
2023/04/13 00:24:11;;;;;;;1.75;1.25;;;18.70;63.60;;;;;;5053734;28;20299;-68
2023/04/13 00:27:00;;;;;;;1.02;1.00;;;18.70;63.40;;;;;;5053440;28;20198;-68
2023/04/13 00:29:48;;;;;;;1.23;1.13;;;18.70;63.60;;;;;;5053500;28;20620;-68
2023/04/13 00:32:37;;;;;;;1.38;1.27;;;18.70;63.70;;;;;;5052703;28;20693;-68
2023/04/13 00:35:26;;;;;;;2.13;1.42;;;18.70;63.90;;;;;;5054153;28;20224;-68
2023/04/13 00:38:14;;;;;;;1.10;1.00;;;18.70;63.90;;;;;;5053558;28;20560;-68
2023/04/13 00:41:04;;;;;;;1.38;1.27;;;18.70;63.90;;;;;;5053756;28;20808;-69
2023/04/13 00:43:52;;;;;;;1.38;1.25;;;18.70;63.80;;;;;;5052718;28;20916;-68
2023/04/13 00:46:41;;;;;;;1.20;1.10;;;18.70;63.90;;;;;;5066396;28;20196;-69
2023/04/13 00:49:30;;;;;;;1.60;1.50;;;18.70;63.90;;;;;;5072662;28;20661;-69
2023/04/13 00:52:20;;;;;;;1.13;1.02;;;18.60;63.80;;;;;;5072297;28;20216;-69
2023/04/13 00:55:08;;;;;;;1.30;1.10;;;18.80;64.00;;;;;;5073168;28;20200;-68
2023/04/13 00:58:00;;;;;;;1.20;1.20;;;18.60;63.90;;;;;;5072814;28;20298;-68
2023/04/13 01:00:48;;;;;;;1.33;1.23;;;18.60;63.90;;;;;;5073759;28;20459;-69
2023/04/13 01:03:38;;;;;;;2.05;1.00;;;18.60;63.30;;;;;;5072546;28;20354;-69
2023/04/13 01:06:32;;;;;;;1.50;1.20;;;18.60;63.90;;;;;;5072605;28;20204;-68
2023/04/13 01:09:28;;;;;;;1.98;1.50;;;18.60;64.00;;;;;;5072562;28;20244;-68
2023/04/13 01:12:21;;;;;;;1.60;1.50;;;18.60;64.00;;;;;;5072354;28;20244;-69
2023/04/13 01:15:14;;;;;;;1.30;1.20;;;18.60;64.20;;;;;;5072434;28;20233;-68
2023/04/13 01:18:06;;;;;;;1.20;1.10;;;18.50;64.80;;;;;;5072108;28;20203;-68
2023/04/13 01:20:54;;;;;;;1.42;1.33;;;18.50;64.00;;;;;;5072259;28;20203;-68
2023/04/13 01:23:52;;;;;;;1.55;1.38;;;18.50;63.90;;;;;;5071938;28;20582;-69
2023/04/13 01:26:53;;;;;;;1.20;1.10;;;18.50;63.90;;;;;;5072274;28;20204;-69
2023/04/13 01:29:45;;;;;;;1.10;1.00;;;18.50;64.10;;;;;;5072220;28;20204;-68
2023/04/13 01:32:34;;;;;;;1.40;1.30;;;18.40;64.00;;;;;;5073789;28;20339;-69
2023/04/13 01:35:24;;;;;;;1.55;1.27;;;18.40;63.90;;;;;;5085322;28;20228;-68
2023/04/13 01:38:13;;;;;;;1.33;1.10;;;18.40;63.90;;;;;;5079310;28;20203;-69
2023/04/13 01:41:01;;;;;;;1.50;1.10;;;18.40;64.00;;;;;;5072185;28;20199;-69
2023/04/13 01:43:50;;;;;;;1.95;1.30;;;18.50;64.20;;;;;;5072021;28;20225;-69
2023/04/13 01:46:45;;;;;;;1.30;1.20;;;18.50;64.00;;;;;;5057307;28;20236;-68
2023/04/13 01:49:34;;;;;;;1.50;1.40;;;18.40;64.00;;;;;;5071678;28;20201;-68
2023/04/13 01:52:22;;;;;;;1.25;1.15;;;18.40;64.10;;;;;;5062391;28;20283;-68
2023/04/13 01:55:12;;;;;;;1.30;1.20;;;18.40;64.00;;;;;;5052011;28;20217;-69
2023/04/13 01:58:01;;;;;;;2.10;1.35;;;18.40;64.00;;;;;;5051926;28;20635;-68
2023/04/13 02:00:49;;;;;;;1.33;1.30;;;18.50;64.10;;;;;;5051581;28;20724;-69
2023/04/13 02:03:41;;;;;;;1.67;1.58;;;18.40;63.90;;;;;;5050988;28;20224;-68
2023/04/13 02:06:30;;;;;;;1.30;1.20;;;18.50;64.10;;;;;;5051526;28;20204;-68
2023/04/13 02:09:18;;;;;;;1.42;1.30;;;18.40;64.10;;;;;;5051422;28;20681;-68
2023/04/13 02:12:07;;;;;;;1.85;1.65;;;18.50;70.70;;;;;;5051167;28;20256;-68
2023/04/13 02:14:55;;;;;;;2.13;1.42;;;18.40;64.10;;;;;;5051563;28;20344;-68
2023/04/13 02:17:43;;;;;;;1.67;1.25;;;18.50;64.30;;;;;;5051458;28;20294;-69
2023/04/13 02:20:42;;;;;;;1.40;1.20;;;18.30;63.90;;;;;;5052707;28;20205;-69
2023/04/13 02:23:32;;;;;;;1.30;1.20;;;18.30;63.90;;;;;;5051241;28;20304;-68
2023/04/13 02:26:20;;;;;;;1.20;1.10;;;18.30;63.90;;;;;;5051511;28;20752;-68
2023/04/13 02:29:08;;;;;;;1.50;1.17;;;18.30;63.90;;;;;;5051413;28;20229;-69
2023/04/13 02:31:56;;;;;;;1.13;1.02;;;18.10;64.00;;;;;;5051660;28;20701;-69
2023/04/13 02:34:45;;;;;;;1.35;1.13;;;18.30;63.30;;;;;;5092905;22;20243;-64
2023/04/13 02:37:36;;;;;;;1.20;1.10;;;18.20;63.90;;;;;;5070782;28;20204;-64
2023/04/13 02:40:26;;;;;;;1.30;1.20;;;18.20;63.90;;;;;;5070197;28;20311;-64
2023/04/13 02:43:15;;;;;;;1.85;1.23;;;18.20;64.00;;;;;;5070169;28;20294;-65
2023/04/13 02:46:03;;;;;;;1.38;1.27;;;18.10;63.90;;;;;;5070342;28;20207;-64
2023/04/13 02:48:51;;;;;;;1.30;1.20;;;18.20;64.00;;;;;;5069856;28;20673;-64
2023/04/13 02:51:39;;;;;;;1.42;1.30;;;18.20;64.00;;;;;;5070587;28;20280;-64
2023/04/13 02:54:28;;;;;;;1.45;1.00;;;18.20;63.40;;;;;;5070350;28;20708;-64
2023/04/13 02:57:17;;;;;;;1.45;1.10;;;18.20;64.00;;;;;;5070551;28;20279;-64
2023/04/13 03:00:09;;;;;;;1.45;1.10;;;18.20;64.00;;;;;;5069520;28;20254;-64
2023/04/13 03:02:57;;;;;;;1.10;1.10;;;18.20;63.90;;;;;;5069711;28;20208;-64
2023/04/13 03:05:46;;;;;;;1.35;1.25;;;18.20;63.90;;;;;;5069236;28;20205;-64
2023/04/13 03:08:34;;;;;;;1.77;0.90;;;18.20;63.90;;;;;;5069854;28;20297;-64
2023/04/13 03:11:23;;;;;;;1.98;1.10;;;18.20;63.90;;;;;;5069451;28;20704;-64
2023/04/13 03:14:20;;;;;;;1.30;1.20;;;18.20;64.60;;;;;;5073034;28;20602;-64
2023/04/13 03:17:10;;;;;;;2.10;1.17;;;18.20;63.90;;;;;;5073086;28;20715;-64
2023/04/13 03:19:58;;;;;;;1.38;1.05;;;18.10;63.80;;;;;;5073972;28;20238;-64
2023/04/13 03:22:46;;;;;;;0.90;0.90;;;18.30;71.30;;;;;;5072594;28;20193;-64
2023/04/13 03:25:34;;;;;;;1.00;0.90;;;18.20;64.00;;;;;;5074162;28;20192;-64
2023/04/13 03:28:24;;;;;;;2.03;1.80;;;18.20;63.90;;;;;;5072638;28;20248;-64
2023/04/13 03:31:13;;;;;;;1.17;0.93;;;18.20;64.00;;;;;;5072984;28;20208;-64
2023/04/13 03:34:01;;;;;;;1.52;1.00;;;18.10;63.80;;;;;;5073816;28;20263;-64
2023/04/13 03:36:50;;;;;;;1.10;1.02;;;18.10;63.90;;;;;;5074391;28;20291;-64
2023/04/13 03:39:38;;;;;;;1.10;1.10;;;18.10;63.80;;;;;;5074075;28;20243;-64
2023/04/13 03:42:27;;;;;;;1.42;1.13;;;18.10;63.80;;;;;;5072996;28;20575;-64
2023/04/13 03:45:17;;;;;;;1.33;1.00;;;18.10;63.30;;;;;;5071689;28;20590;-64
2023/04/13 03:48:06;;;;;;;1.40;1.20;;;18.10;63.90;;;;;;5069184;28;20273;-64
2023/04/13 03:50:55;;;;;;;1.38;1.27;;;18.10;63.90;;;;;;5072908;28;20201;-64
2023/04/13 03:53:43;;;;;;;1.00;1.00;;;18.10;63.90;;;;;;5072226;28;20705;-64
2023/04/13 03:56:31;;;;;;;1.38;1.17;;;18.10;63.80;;;;;;5073113;28;20230;-64
2023/04/13 03:59:19;;;;;;;1.23;1.13;;;18.10;63.80;;;;;;5071985;28;20232;-65
2023/04/13 04:02:08;;;;;;;1.30;0.90;;;18.20;63.80;;;;;;5072358;28;20337;-64
2023/04/13 04:04:58;;;;;;;1.05;0.95;;;18.10;63.80;;;;;;5071629;28;20224;-64
2023/04/13 04:07:46;;;;;;;1.15;1.00;;;18.10;63.80;;;;;;5072336;28;20318;-64
2023/04/13 04:10:34;;;;;;;0.95;0.95;;;18.20;63.90;;;;;;5073469;28;20649;-64
2023/04/13 04:13:23;;;;;;;2.08;1.58;;;18.10;63.80;;;;;;5072779;28;20595;-64
2023/04/13 04:16:11;;;;;;;1.50;0.80;;;18.20;63.90;;;;;;5073085;28;20322;-64
2023/04/13 04:19:00;;;;;;;1.20;1.10;;;18.10;63.80;;;;;;5073146;28;20280;-64
2023/04/13 04:21:48;;;;;;;1.02;1.02;;;18.10;63.80;;;;;;5071649;28;20192;-64
2023/04/13 04:24:36;;;;;;;1.23;1.08;;;18.10;63.80;;;;;;5070828;28;20216;-65
2023/04/13 04:27:25;;;;;;;0.90;0.90;;;18.20;63.90;;;;;;5072026;28;20681;-64
2023/04/13 04:30:13;;;;;;;1.00;0.90;;;18.10;63.80;;;;;;5073092;28;20204;-64
2023/04/13 04:33:01;;;;;;;1.35;1.17;;;18.10;63.80;;;;;;5070176;28;20763;-64
2023/04/13 04:35:51;;;;;;;1.60;1.10;;;18.10;63.80;;;;;;5071691;28;20207;-64
2023/04/13 04:38:39;;;;;;;1.27;1.00;;;18.10;63.70;;;;;;5072960;28;20205;-64
2023/04/13 04:41:27;;;;;;;2.25;1.10;;;18.10;63.80;;;;;;5071279;28;20236;-65
2023/04/13 04:44:16;;;;;;;1.40;1.30;;;18.10;63.80;;;;;;5072623;28;20303;-64
2023/04/13 04:47:04;;;;;;;0.93;0.93;;;18.20;63.80;;;;;;5055443;28;20233;-64
2023/04/13 04:49:52;;;;;;;1.70;1.10;;;18.10;63.80;;;;;;5052652;28;20240;-64
2023/04/13 04:52:42;;;;;;;1.60;1.08;;;18.00;64.20;;;;;;5052207;28;20229;-65
2023/04/13 04:55:30;;;;;;;1.10;1.00;;;18.10;63.80;;;;;;5052298;28;20590;-64
2023/04/13 04:58:19;;;;;;;1.40;1.30;;;18.10;63.80;;;;;;5052913;28;20678;-65
2023/04/13 05:01:07;;;;;;;1.67;1.00;;;18.10;63.80;;;;;;5052244;28;20204;-64
2023/04/13 05:03:55;;;;;;;1.35;1.25;;;18.10;63.80;;;;;;5052143;28;20220;-65
2023/04/13 05:06:43;;;;;;;2.47;1.10;;;18.00;63.60;;;;;;5052267;28;20202;-64
2023/04/13 05:09:36;;;;;;;1.27;0.90;;;18.00;63.80;;;;;;5052284;28;20198;-64
2023/04/13 05:12:24;;;;;;;2.05;1.20;;;18.00;63.80;;;;;;5051942;28;20221;-64
2023/04/13 05:15:12;;;;;;;1.17;1.05;;;18.00;63.30;;;;;;5052239;28;20709;-64
2023/04/13 05:18:00;;;;;;;1.73;0.90;;;18.10;63.90;;;;;;5052023;28;20277;-64
2023/04/13 05:20:48;;;;;;;1.13;1.02;;;18.10;63.80;;;;;;5052397;28;20229;-64
2023/04/13 05:23:37;;;;;;;1.27;1.17;;;18.10;63.80;;;;;;5051729;28;20292;-64
2023/04/13 05:26:27;;;;;;;1.23;1.00;;;18.10;63.80;;;;;;5051997;28;20287;-64
2023/04/13 05:29:15;;;;;;;1.40;1.10;;;18.10;63.80;;;;;;5051518;28;20224;-65
2023/04/13 05:32:04;;;;;;;1.13;0.90;;;18.10;63.80;;;;;;5051367;28;20357;-65
2023/04/13 05:34:52;;;;;;;0.80;0.80;;;18.10;63.80;;;;;;5051670;28;20236;-64
2023/04/13 05:37:40;;;;;;;0.98;0.98;;;18.10;63.80;;;;;;5051690;28;20282;-64
2023/04/13 05:40:29;;;;;;;1.17;1.08;;;18.10;63.80;;;;;;5051802;28;20246;-64
2023/04/13 05:43:19;;;;;;;1.10;1.00;;;18.10;63.80;;;;;;5051470;28;20221;-65
2023/04/13 05:46:11;;;;;;;1.17;1.13;;;18.10;63.70;;;;;;5060943;28;20204;-65
2023/04/13 05:49:00;;;;;;;1.58;1.15;;;18.10;63.70;;;;;;5070457;28;20204;-65
2023/04/13 05:51:50;;;;;;;2.33;1.10;;;18.10;63.70;;;;;;5071259;28;20234;-65
2023/04/13 05:54:38;;;;;;;1.63;1.15;;;18.20;63.70;;;;;;5070500;28;20296;-65
2023/04/13 05:57:26;;;;;;;1.67;1.58;;;18.20;63.70;;;;;;5070081;28;20196;-65
2023/04/13 06:00:18;;;;;;;1.63;1.52;;;18.20;63.70;;;;;;5070033;28;20664;-65
2023/04/13 06:03:07;;;;;;;1.50;1.40;;;18.20;63.70;;;;;;5070619;28;20693;-65
2023/04/13 06:05:56;;;;;;;4.10;1.00;;;18.20;63.60;;;;;;5070177;28;20197;-65
2023/04/13 06:08:44;;;;;;;1.20;1.10;;;18.20;63.60;;;;;;5071386;28;20204;-65
2023/04/13 06:11:32;;;;;;;1.77;1.10;;;18.20;63.60;;;;;;5071066;28;20560;-65
2023/04/13 06:14:21;;;;;;;1.20;1.00;;;18.20;63.60;;;;;;5070201;28;20225;-65
2023/04/13 06:17:10;;;;;;;1.17;1.00;;;18.20;63.60;;;;;;5070950;28;20306;-65
2023/04/13 06:19:58;;;;;;;1.65;0.90;;;18.20;63.80;;;;;;5070307;28;20754;-65
2023/04/13 06:22:46;;;;;;;0.93;0.90;;;18.10;69.40;;;;;;5070038;28;20271;-65
2023/04/13 06:25:34;;;;;;;1.25;1.15;;;18.10;63.50;;;;;;5070892;28;20228;-65
2023/04/13 06:28:27;;;;;;;1.23;1.10;;;18.10;63.50;;;;;;5071165;28;20288;-65
2023/04/13 06:31:15;;;;;;;133.80;16.20;;;18.20;63.60;;;;;;5069919;28;20241;-65
2023/04/13 06:34:06;;;;;;;72.20;9.05;;;18.20;64.30;;;;;;5070406;28;20221;-65
2023/04/13 06:36:54;;;;;;;18.65;3.25;;;18.20;63.60;;;;;;5070337;28;20204;-65
2023/04/13 06:39:42;;;;;;;20.20;2.65;;;18.30;63.60;;;;;;5071187;28;20287;-65
2023/04/13 06:42:30;;;;;;;12.98;1.60;;;18.20;63.40;;;;;;5070984;28;20286;-65
2023/04/13 06:45:19;;;;;;;15.20;1.50;;;18.20;62.80;;;;;;5069191;28;20728;-65
2023/04/13 06:48:07;;;;;;;8.65;1.55;;;18.20;63.50;;;;;;5052214;28;20677;-65
2023/04/13 06:50:57;;;;;;;5.40;1.40;;;18.20;63.40;;;;;;5054989;28;20200;-65
2023/04/13 06:53:46;;;;;;;13.00;1.58;;;18.20;63.40;;;;;;5054371;28;20690;-65
2023/04/13 06:56:34;;;;;;;6.10;1.33;;;18.30;63.60;;;;;;5054596;28;20775;-65
2023/04/13 06:59:22;;;;;;;3.55;1.10;;;18.20;63.40;;;;;;5054730;28;20237;-65
2023/04/13 07:02:10;;;;;;;8.18;1.35;;;18.30;63.40;;;;;;5054498;28;20235;-65
2023/04/13 07:04:58;;;;;;;2.50;1.10;;;18.30;63.30;;;;;;5054762;28;20217;-65
2023/04/13 07:07:48;;;;;;;2.15;1.20;;;18.30;63.30;;;;;;5054766;28;20201;-65
2023/04/13 07:10:38;;;;;;;4.13;1.20;;;18.30;63.30;;;;;;5054603;28;20631;-65
2023/04/13 07:13:26;;;;;;;4.10;1.30;;;18.40;63.40;;;;;;5053860;28;20244;-65
2023/04/13 07:16:14;;;;;;;2.28;1.50;;;18.30;63.20;;;;;;5054460;28;20291;-65
2023/04/13 07:19:02;;;;;;;2.65;1.58;;;18.30;62.60;;;;;;5055007;28;20686;-65
2023/04/13 07:21:51;;;;;;;5.43;2.30;;;18.30;63.20;;;;;;5053949;28;20201;-65
2023/04/13 07:24:40;;;;;;;2.35;1.40;;;18.50;63.40;;;;;;5054206;28;20769;-65
2023/04/13 07:27:28;;;;;;;6.63;1.10;;;18.40;63.20;;;;;;5054633;28;20276;-65
2023/04/13 07:30:16;;;;;;;4.50;1.30;;;18.40;63.20;;;;;;5054061;28;20280;-65
2023/04/13 07:33:04;;;;;;;2.80;1.13;;;18.40;63.20;;;;;;5054375;28;20975;-65
2023/04/13 07:35:54;;;;;;;5.45;1.10;;;18.40;63.10;;;;;;5054068;28;20207;-65
2023/04/13 07:38:42;;;;;;;1.60;0.90;;;18.40;63.30;;;;;;5054127;28;20250;-65
2023/04/13 07:41:31;;;;;;;2.58;1.23;;;18.30;63.20;;;;;;5053977;28;20201;-65
2023/04/13 07:44:20;;;;;;;1.73;1.30;;;18.30;62.60;;;;;;5054417;28;20591;-65
2023/04/13 07:47:08;;;;;;;10.05;1.38;;;18.30;63.20;;;;;;5071513;28;20199;-65
2023/04/13 07:49:56;;;;;;;3.85;0.95;;;18.40;63.20;;;;;;5072957;28;20200;-65
2023/04/13 07:52:44;;;;;;;5.10;1.05;;;18.10;63.30;;;;;;5073344;28;20299;-65
2023/04/13 07:55:32;;;;;;;6.15;1.38;;;18.40;63.20;;;;;;5073109;28;20394;-65
2023/04/13 07:58:21;;;;;;;2.17;1.00;;;18.40;63.10;;;;;;5073077;28;20209;-65
2023/04/13 08:01:09;;;;;;;1.58;1.20;;;18.40;63.20;;;;;;5073979;28;20275;-65
2023/04/13 08:03:57;;;;;;;4.00;1.30;;;18.40;63.10;;;;;;5072831;28;20290;-65
2023/04/13 08:06:45;;;;;;;1.98;1.17;;;18.50;63.20;;;;;;5073532;28;20212;-65
2023/04/13 08:09:35;;;;;;;2.78;1.08;;;18.50;63.00;;;;;;5072064;28;20208;-65
2023/04/13 08:12:23;;;;;;;4.55;1.02;;;18.50;62.90;;;;;;5073990;28;20305;-65
2023/04/13 08:15:13;;;;;;;1.00;0.90;;;18.50;62.20;;;;;;5073183;28;20217;-65
2023/04/13 08:18:02;;;;;;;0.82;0.82;;;18.50;62.70;;;;;;5073235;28;20556;-65
2023/04/13 08:20:51;;;;;;;1.75;1.10;;;18.60;62.70;;;;;;5072000;28;20239;-65
2023/04/13 08:23:41;;;;;;;2.58;0.90;;;18.60;62.70;;;;;;5072756;28;20252;-65
2023/04/13 08:26:29;;;;;;;1.08;0.90;;;18.60;62.60;;;;;;5072568;28;20193;-65
2023/04/13 08:29:17;;;;;;;1.38;0.80;;;18.60;62.50;;;;;;5072416;28;20234;-65
2023/04/13 08:32:07;;;;;;;0.80;0.80;;;18.70;62.60;;;;;;5072737;28;20222;-65
2023/04/13 08:34:55;;;;;;;2.00;0.95;;;18.60;61.90;;;;;;5073252;28;20693;-65
2023/04/13 08:37:43;;;;;;;1.80;0.90;;;18.60;62.50;;;;;;5071855;28;20246;-65
2023/04/13 08:40:34;;;;;;;1.98;0.93;;;18.60;62.50;;;;;;5071414;28;20193;-65
2023/04/13 08:43:23;;;;;;;2.25;0.90;;;18.60;62.60;;;;;;5071852;28;20261;-65
2023/04/13 08:46:12;;;;;;;2.58;0.85;;;18.60;62.00;;;;;;5062084;28;20278;-65
2023/04/13 08:49:02;;;;;;;2.65;0.98;;;18.60;62.60;;;;;;5052660;28;20229;-65
2023/04/13 08:51:51;;;;;;;2.05;1.00;;;18.70;62.60;;;;;;5053070;28;20198;-65
2023/04/13 08:54:39;;;;;;;1.83;1.08;;;18.70;62.50;;;;;;5052279;28;20221;-65
2023/04/13 08:57:29;;;;;;;1.35;0.90;;;18.70;62.40;;;;;;5052291;28;20238;-65
2023/04/13 09:00:18;;;;;;;0.95;0.93;;;18.70;62.50;;;;;;5053031;28;20745;-65
2023/04/13 09:03:09;;;;;;;0.80;0.70;;;18.70;62.40;;;;;;5052001;28;20597;-65
2023/04/13 09:06:07;;;;;;;0.88;0.85;;;18.70;62.50;;;;;;5052359;28;20283;-65
2023/04/13 09:08:56;;;;;;;0.98;0.80;;;18.70;62.50;;;;;;5052533;28;20205;-65
2023/04/13 09:11:44;;;;;;;1.00;0.80;;;18.80;62.60;;;;;;5051402;28;20209;-65
2023/04/13 09:14:37;;;;;;;1.38;0.90;;;18.70;62.30;;;;;;5052033;28;20727;-65
2023/04/13 09:17:26;;;;;;;0.90;0.90;;;18.70;62.30;;;;;;5052364;28;20212;-65
2023/04/13 09:20:19;;;;;;;3.33;0.93;;;18.70;62.20;;;;;;5052789;28;20234;-65
2023/04/13 09:23:15;;;;;;;0.77;0.75;;;18.80;61.70;;;;;;5051712;28;20595;-65
2023/04/13 09:26:05;;;;;;;1.73;0.80;;;18.80;62.30;;;;;;5052048;28;20812;-65
2023/04/13 09:28:55;;;;;;;0.98;0.88;;;18.80;62.30;;;;;;5052556;28;20198;-65
2023/04/13 09:31:45;;;;;;;1.58;0.80;;;18.80;62.30;;;;;;5051488;28;20202;-65
2023/04/13 09:34:33;;;;;;;1.80;0.80;;;18.80;62.30;;;;;;5051755;28;20307;-65
2023/04/13 09:37:21;;;;;;;2.33;1.40;;;18.70;62.20;;;;;;5052477;28;20280;-65
2023/04/13 09:40:12;;;;;;;1.42;0.90;;;18.70;62.20;;;;;;5052178;28;20205;-65
2023/04/13 09:43:03;;;;;;;1.38;0.98;;;18.70;62.20;;;;;;5051420;28;20340;-66
2023/04/13 09:45:51;;;;;;;0.98;0.70;;;18.70;62.20;;;;;;5058953;28;20200;-65
2023/04/13 09:48:40;;;;;;;1.25;0.70;;;18.90;62.40;;;;;;5070957;28;20279;-65
2023/04/13 09:51:35;;;;;;;0.95;0.77;;;18.80;62.30;;;;;;5071596;28;20303;-65
2023/04/13 09:54:23;;;;;;;1.10;0.90;;;18.80;61.60;;;;;;5070593;28;20250;-65
2023/04/13 09:57:23;;;;;;;1.02;0.90;;;18.70;61.50;;;;;;5070526;28;20245;-65
2023/04/13 10:00:19;;;;;;;1.70;0.80;;;18.80;62.10;;;;;;5070066;28;20204;-65
2023/04/13 10:03:10;;;;;;;0.70;0.70;;;18.90;61.50;;;;;;5070042;28;20303;-65
2023/04/13 10:05:59;;;;;;;1.48;0.88;;;18.80;62.00;;;;;;5070239;28;20196;-66
2023/04/13 10:08:48;;;;;;;1.38;0.70;;;18.90;62.10;;;;;;5071336;28;20279;-65
2023/04/13 10:11:39;;;;;;;0.88;0.70;;;19.00;62.10;;;;;;5071165;28;20215;-65
2023/04/13 10:14:34;;;;;;;1.98;0.80;;;18.90;62.00;;;;;;5070964;28;20273;-65
2023/04/13 10:17:34;;;;;;;0.80;0.80;;;18.90;62.00;;;;;;5071417;28;20695;-65
2023/04/13 10:20:23;;;;;;;1.60;0.80;;;19.00;62.10;;;;;;5070763;28;20211;-65
2023/04/13 10:23:14;;;;;;;0.85;0.85;;;19.00;61.50;;;;;;5070746;28;20225;-65
2023/04/13 10:26:03;;;;;;;1.10;1.00;;;19.00;61.50;;;;;;5074770;28;20193;-65
2023/04/13 10:28:51;;;;;;;1.98;0.80;;;19.00;61.90;;;;;;5075921;28;20207;-65
2023/04/13 10:31:45;;;;;;;3.97;0.90;;;19.10;62.10;;;;;;5073881;28;20680;-65
2023/04/13 10:34:37;;;;;;;1.65;0.90;;;19.00;61.30;;;;;;5074875;28;20564;-65
2023/04/13 10:37:28;;;;;;;1.83;0.90;;;19.00;62.00;;;;;;5075231;28;20196;-65
2023/04/13 10:40:16;;;;;;;1.67;0.80;;;19.00;61.90;;;;;;5074794;28;20250;-65
2023/04/13 10:43:05;;;;;;;1.23;0.70;;;19.00;61.20;;;;;;5074722;28;20216;-65
2023/04/13 10:46:05;;;;;;;0.77;0.75;;;19.00;61.80;;;;;;5067429;28;20196;-65
2023/04/13 10:48:57;;;;;;;1.20;0.70;;;19.00;61.80;;;;;;5055276;28;20268;-65
2023/04/13 10:51:46;;;;;;;0.80;0.70;;;19.00;61.90;;;;;;5054684;28;20288;-65
2023/04/13 10:54:35;;;;;;;1.00;0.75;;;19.00;61.30;;;;;;5054923;28;20327;-65
2023/04/13 10:57:23;;;;;;;1.10;0.80;;;19.00;62.00;;;;;;5054823;28;20229;-65
2023/04/13 11:00:20;;;;;;;1.17;0.70;;;19.00;61.90;;;;;;5054709;28;20277;-65
2023/04/13 11:03:14;;;;;;;1.30;0.77;;;19.00;61.30;;;;;;5054419;28;20216;-65
2023/04/13 11:06:07;;;;;;;3.15;0.70;;;19.00;61.80;;;;;;5054585;28;20208;-65
2023/04/13 11:09:01;;;;;;;0.70;0.70;;;19.10;62.00;;;;;;5054258;28;20255;-65
2023/04/13 11:11:51;;;;;;;1.23;0.70;;;19.10;61.90;;;;;;5054245;28;20683;-65
2023/04/13 11:14:39;;;;;;;1.10;1.00;;;19.00;61.90;;;;;;5054858;28;20217;-65
2023/04/13 11:17:28;;;;;;;2.03;0.80;;;19.10;62.00;;;;;;5054311;28;20201;-65
2023/04/13 11:20:16;;;;;;;0.95;0.85;;;19.10;62.00;;;;;;5054585;28;20343;-65
2023/04/13 11:23:07;;;;;;;1.42;1.00;;;19.00;61.10;;;;;;5053967;28;20296;-65
2023/04/13 11:25:58;;;;;;;1.60;0.85;;;19.10;61.80;;;;;;5054432;28;20208;-65
2023/04/13 11:28:47;;;;;;;0.98;0.70;;;19.10;61.80;;;;;;5054497;28;20303;-65
2023/04/13 11:31:37;;;;;;;1.35;0.73;;;19.00;61.70;;;;;;5054238;28;20205;-65
2023/04/13 11:34:27;;;;;;;1.35;0.80;;;19.10;61.10;;;;;;5054147;28;20226;-65
2023/04/13 11:37:16;;;;;;;3.60;0.85;;;19.10;61.60;;;;;;5053761;28;20300;-66
2023/04/13 11:40:13;;;;;;;2.83;0.60;;;19.20;61.60;;;;;;5053812;28;20205;-65
2023/04/13 11:43:01;;;;;;;1.27;0.90;;;19.10;61.60;;;;;;5053790;28;20225;-65
2023/04/13 11:45:49;;;;;;;0.98;0.60;;;19.10;61.80;;;;;;5060699;28;20272;-64
2023/04/13 11:48:38;;;;;;;1.00;0.80;;;19.10;62.00;;;;;;5072489;28;20274;-64
2023/04/13 11:51:26;;;;;;;1.15;0.80;;;19.00;62.00;;;;;;5072336;28;20742;-64
2023/04/13 11:54:15;;;;;;;1.50;0.65;;;19.00;62.10;;;;;;5073659;28;20304;-66
2023/04/13 11:57:05;;;;;;;3.63;0.80;;;19.00;62.10;;;;;;5072590;28;20313;-65
2023/04/13 11:59:54;;;;;;;4.55;0.80;;;19.10;62.20;;;;;;5072827;28;20245;-65
2023/04/13 12:02:42;;;;;;;2.20;0.95;;;19.00;62.40;;;;;;5073238;28;20285;-64
2023/04/13 12:05:48;;;;;;;1.05;0.82;;;19.00;62.20;;;;;;5072368;28;20385;-64
2023/04/13 12:08:37;;;;;;;0.70;0.70;;;19.00;62.10;;;;;;5073505;28;20246;-65
2023/04/13 12:11:26;;;;;;;2.05;0.70;;;19.00;62.10;;;;;;5073334;28;20209;-64
2023/04/13 12:14:23;;;;;;;1.33;0.80;;;19.10;61.50;;;;;;5072914;28;20229;-64
2023/04/13 12:17:31;;;;;;;0.60;0.60;;;19.10;62.00;;;;;;5072645;28;20227;-64
2023/04/13 12:20:23;;;;;;;2.45;0.70;;;19.10;61.80;;;;;;5072991;28;20673;-64
2023/04/13 12:23:17;;;;;;;2.05;0.80;;;19.20;61.70;;;;;;5072269;28;20795;-64
2023/04/13 12:26:12;;;;;;;1.08;0.77;;;19.20;61.60;;;;;;5072550;28;20275;-64
2023/04/13 12:29:23;;;;;;;1.70;0.70;;;19.30;61.70;;;;;;5073083;28;20203;-64
2023/04/13 12:32:12;;;;;;;1.40;0.70;;;19.30;61.60;;;;;;5072040;28;20205;-64
2023/04/13 12:35:02;;;;;;;1.75;0.70;;;19.30;60.90;;;;;;5071558;28;20208;-64
2023/04/13 12:37:51;;;;;;;1.45;0.80;;;19.30;61.40;;;;;;5071726;28;20200;-64
2023/04/13 12:40:39;;;;;;;1.05;0.77;;;19.40;61.50;;;;;;5071733;28;20200;-64
2023/04/13 12:43:28;;;;;;;3.72;0.70;;;19.40;61.90;;;;;;5071906;28;20293;-64
2023/04/13 12:46:19;;;;;;;3.05;1.13;;;19.40;62.80;;;;;;5060919;28;20209;-63
2023/04/13 12:49:07;;;;;;;1.33;0.80;;;19.40;63.30;;;;;;5052658;28;20201;-63
2023/04/13 12:51:55;;;;;;;5.85;0.75;;;19.50;63.40;;;;;;5052588;28;20284;-63
2023/04/13 12:54:43;;;;;;;3.88;0.60;;;19.50;63.90;;;;;;5071869;28;20244;-64
2023/04/13 12:57:31;;;;;;;3.47;1.95;;;19.50;65.00;;;;;;5071880;28;20688;-64
2023/04/13 13:00:20;;;;;;;3.40;1.20;;;19.60;63.90;;;;;;5072582;28;20745;-64
2023/04/13 13:03:10;;;;;;;5.25;0.70;;;19.50;62.60;;;;;;5071886;28;20217;-64
2023/04/13 13:06:04;;;;;;;0.85;0.70;;;19.50;63.00;;;;;;5071818;28;20204;-64
2023/04/13 13:08:53;;;;;;;2.33;0.80;;;19.60;62.90;;;;;;5071682;28;20561;-64
2023/04/13 13:11:41;;;;;;;2.67;0.70;;;19.60;62.60;;;;;;5071644;28;20209;-64
2023/04/13 13:14:29;;;;;;;3.67;0.80;;;19.60;62.20;;;;;;5071429;28;20763;-65
2023/04/13 13:17:17;;;;;;;1.83;0.70;;;19.60;62.60;;;;;;5071214;28;20303;-64
2023/04/13 13:20:09;;;;;;;2.15;0.80;;;19.60;62.50;;;;;;5070435;28;20231;-64
2023/04/13 13:22:57;;;;;;;0.95;0.70;;;19.70;71.90;;;;;;5071612;28;20331;-64
2023/04/13 13:25:45;;;;;;;1.10;0.73;;;19.60;62.50;;;;;;5072061;28;20227;-64
2023/04/13 13:28:53;;;;;;;1.80;1.10;;;19.60;62.40;;;;;;5071467;28;20194;-64
2023/04/13 13:31:41;;;;;;;1.15;0.80;;;19.80;62.40;;;;;;5071786;28;20287;-64
2023/04/13 13:34:29;;;;;;;2.67;0.88;;;19.60;61.60;;;;;;5070429;28;20244;-64
2023/04/13 13:37:20;;;;;;;2.10;0.70;;;19.70;62.20;;;;;;5070791;28;20228;-64
2023/04/13 13:40:12;;;;;;;2.58;0.80;;;19.70;62.20;;;;;;5071212;28;20279;-64
2023/04/13 13:43:00;;;;;;;0.98;0.70;;;19.60;61.20;;;;;;5071195;28;20217;-64
2023/04/13 13:45:48;;;;;;;2.33;1.08;;;19.60;61.80;;;;;;5064702;28;20200;-64
2023/04/13 13:48:36;;;;;;;1.75;0.73;;;19.60;61.90;;;;;;5051541;28;20205;-64
2023/04/13 13:51:26;;;;;;;1.83;1.15;;;19.60;61.60;;;;;;5051261;28;20209;-64
2023/04/13 13:54:16;;;;;;;1.15;0.60;;;19.50;61.20;;;;;;5051488;28;20258;-64
2023/04/13 13:57:04;;;;;;;2.22;0.80;;;19.50;61.60;;;;;;5051458;28;20258;-64
2023/04/13 13:59:52;;;;;;;1.98;0.70;;;19.60;61.80;;;;;;5051395;28;20586;-64
2023/04/13 14:02:40;;;;;;;0.70;0.70;;;19.60;61.60;;;;;;5051182;28;20204;-64
2023/04/13 14:05:28;;;;;;;0.70;0.70;;;19.50;61.60;;;;;;5051883;28;20201;-64
2023/04/13 14:08:16;;;;;;;1.70;0.77;;;19.50;61.50;;;;;;5051312;28;20193;-64
2023/04/13 14:11:05;;;;;;;0.82;0.60;;;19.50;61.60;;;;;;5051243;28;20201;-64
2023/04/13 14:13:54;;;;;;;1.30;0.70;;;19.50;60.70;;;;;;5051036;28;20296;-64
2023/04/13 14:16:42;;;;;;;2.30;0.70;;;19.50;61.60;;;;;;5051307;28;20217;-64
2023/04/13 14:19:30;;;;;;;2.00;0.88;;;19.50;61.60;;;;;;5051164;28;20677;-64
2023/04/13 14:22:18;;;;;;;1.33;0.80;;;19.50;61.50;;;;;;5050917;28;20276;-64
2023/04/13 14:25:09;;;;;;;0.60;0.60;;;19.50;60.90;;;;;;5051394;28;20335;-64
2023/04/13 14:27:58;;;;;;;1.63;0.70;;;19.50;61.50;;;;;;5051384;28;20400;-64
2023/04/13 14:30:46;;;;;;;0.93;0.60;;;19.60;61.50;;;;;;5050899;28;20752;-64
2023/04/13 14:33:34;;;;;;;3.15;0.70;;;19.50;60.90;;;;;;5051196;28;20232;-64
2023/04/13 14:36:23;;;;;;;1.65;0.70;;;19.50;61.40;;;;;;5050977;28;20276;-64
2023/04/13 14:39:11;;;;;;;1.80;0.70;;;19.50;61.40;;;;;;5050673;28;20233;-63
2023/04/13 14:41:59;;;;;;;2.17;0.75;;;19.50;61.50;;;;;;5050720;28;20197;-64